createdAt,value
2022-09-15T03:54:54.146Z,19.09
2022-09-15T03:57:56.434Z,19.03
2022-09-15T04:00:58.498Z,19.03
2022-09-15T04:04:01.906Z,18.98
2022-09-15T04:07:04.052Z,18.97
2022-09-15T04:10:08.602Z,18.92
2022-09-15T04:13:10.884Z,18.93
2022-09-15T04:16:16.357Z,18.93
2022-09-15T04:19:18.507Z,18.90
2022-09-15T04:22:21.440Z,18.86
2022-09-15T04:25:24.641Z,18.85
2022-09-15T04:28:28.074Z,18.85
2022-09-15T04:31:30.149Z,18.87
2022-09-15T04:34:32.461Z,18.91
2022-09-15T04:37:34.503Z,18.84
2022-09-15T04:40:38.077Z,18.92
2022-09-15T04:43:40.693Z,19.03
2022-09-15T04:46:43.033Z,19.03
2022-09-15T04:49:45.881Z,19.12
2022-09-15T04:52:48.193Z,19.22
2022-09-15T04:55:50.230Z,19.26
2022-09-15T04:59:03.160Z,19.36
2022-09-15T05:02:06.156Z,19.43
2022-09-15T05:05:08.656Z,19.47
2022-09-15T05:08:10.858Z,19.40
2022-09-15T05:11:13.546Z,19.46
2022-09-15T05:14:15.603Z,19.57
2022-09-15T05:17:17.886Z,19.57
2022-09-15T05:20:20.017Z,19.58
2022-09-15T05:23:22.745Z,19.60
2022-09-15T05:26:28.055Z,19.67
2022-09-15T05:29:30.338Z,19.78
2022-09-15T05:32:32.353Z,19.76
2022-09-15T05:35:34.648Z,19.79
2022-09-15T05:38:36.799Z,19.70
2022-09-15T05:41:39.074Z,19.75
2022-09-15T05:44:41.092Z,19.81
2022-09-15T05:47:43.419Z,19.75
2022-09-15T05:50:49.912Z,19.85
2022-09-15T05:53:52.412Z,19.76
2022-09-15T05:56:54.797Z,19.75
2022-09-15T05:59:57.111Z,19.79
2022-09-15T06:02:59.300Z,19.83
2022-09-15T06:06:03.754Z,19.83
2022-09-15T06:09:06.458Z,19.93
2022-09-15T06:12:08.817Z,19.92
2022-09-15T06:15:12.458Z,19.95
2022-09-15T06:18:16.224Z,19.95
2022-09-15T06:21:20.720Z,20.10
2022-09-15T06:24:23.021Z,20.12
2022-09-15T06:27:25.368Z,20.17
2022-09-15T06:30:27.656Z,20.21
2022-09-15T06:33:29.763Z,20.28
2022-09-15T06:36:32.754Z,20.24
2022-09-15T06:39:35.145Z,20.22
2022-09-15T06:42:37.448Z,20.27
2022-09-15T06:45:39.678Z,20.41
2022-09-15T06:48:47.442Z,20.41
2022-09-15T06:51:50.869Z,20.43
2022-09-15T06:54:53.159Z,20.41
2022-09-15T06:57:55.194Z,20.44
2022-09-15T07:01:09.664Z,20.61
2022-09-15T07:04:11.718Z,20.51
2022-09-15T07:07:14.003Z,20.54
2022-09-15T07:10:16.107Z,20.55
2022-09-15T07:13:18.384Z,20.64
2022-09-15T07:16:21.349Z,20.66
2022-09-15T07:19:23.925Z,20.63
2022-09-15T07:22:26.004Z,20.72
2022-09-15T07:25:28.358Z,20.78
2022-09-15T07:28:31.079Z,20.83
2022-09-15T07:31:36.464Z,20.85
2022-09-15T07:34:38.568Z,21.04
2022-09-15T07:37:40.842Z,21.21
2022-09-15T07:40:43.177Z,21.44
2022-09-15T07:43:56.885Z,21.53
2022-09-15T07:46:58.890Z,21.55
2022-09-15T07:50:01.174Z,21.56
2022-09-15T07:53:03.538Z,21.50
2022-09-15T07:56:06.221Z,21.63
2022-09-15T07:59:08.428Z,21.55
2022-09-15T08:02:17.228Z,21.62
2022-09-15T08:05:19.783Z,21.58
2022-09-15T08:08:21.808Z,21.63
2022-09-15T08:11:24.125Z,21.68
2022-09-15T08:14:26.161Z,21.72
2022-09-15T08:17:28.437Z,21.86
2022-09-15T08:20:31.888Z,22.06
2022-09-15T08:23:34.259Z,22.13
2022-09-15T08:26:38.347Z,22.17
2022-09-15T08:29:40.853Z,22.31
2022-09-15T08:32:42.899Z,22.41
2022-09-15T08:35:45.187Z,22.42
2022-09-15T08:38:48.013Z,22.56
2022-09-15T08:41:53.744Z,22.70
2022-09-15T08:45:04.890Z,22.85
2022-09-15T08:48:09.833Z,23.03
2022-09-15T08:51:20.746Z,23.10
2022-09-15T08:54:26.389Z,23.18
2022-09-15T08:57:28.534Z,23.23
2022-09-15T09:00:32.042Z,23.28
2022-09-15T09:04:13.711Z,23.48
2022-09-15T09:07:44.833Z,23.68
2022-09-15T09:10:53.217Z,23.73
2022-09-15T09:14:18.805Z,23.89
2022-09-15T09:17:36.054Z,23.95
2022-09-15T09:20:44.531Z,24.10
2022-09-15T09:23:57.065Z,24.23
2022-09-15T09:26:59.362Z,24.46
2022-09-15T09:30:15.730Z,24.53
2022-09-15T09:33:24.010Z,24.55
2022-09-15T09:36:27.011Z,24.62
2022-09-15T09:39:29.350Z,24.70
2022-09-15T09:42:37.016Z,24.79
2022-09-15T09:45:39.332Z,24.87
2022-09-15T09:48:45.224Z,25.11
2022-09-15T09:51:55.107Z,25.12
2022-09-15T09:55:24.835Z,25.11
2022-09-15T09:58:27.148Z,25.27
2022-09-15T10:01:30.146Z,25.59
2022-09-15T10:04:32.863Z,25.66
2022-09-15T10:07:43.555Z,25.59
2022-09-15T10:11:02.824Z,25.67
2022-09-15T10:14:05.093Z,25.62
2022-09-15T10:17:12.477Z,25.60
2022-09-15T10:20:22.798Z,25.55
2022-09-15T10:23:28.562Z,25.48
2022-09-15T10:26:33.643Z,25.42
2022-09-15T10:29:42.410Z,25.27
2022-09-15T10:32:44.469Z,25.46
2022-09-15T10:35:46.924Z,25.80
2022-09-15T10:38:59.565Z,26.03
2022-09-15T10:42:30.868Z,26.42
2022-09-15T10:45:38.469Z,26.70
2022-09-15T10:49:06.322Z,26.80
2022-09-15T10:52:40.491Z,26.72
2022-09-15T10:55:54.575Z,26.64
2022-09-15T10:59:04.789Z,26.48
2022-09-15T11:02:20.622Z,26.35
2022-09-15T11:05:53.844Z,26.27
2022-09-15T11:09:19.624Z,26.25
2022-09-15T11:12:39.757Z,26.12
2022-09-15T11:16:20.075Z,26.10
2022-09-15T11:20:10.878Z,25.96
2022-09-15T11:23:32.698Z,25.87
2022-09-15T11:27:45.059Z,25.68
2022-09-15T11:31:01.113Z,25.37
2022-09-15T11:34:34.422Z,25.06
2022-09-15T11:37:43.268Z,24.93
2022-09-15T11:40:55.745Z,24.99
2022-09-15T11:44:16.765Z,24.89
2022-09-15T11:47:30.792Z,24.79
2022-09-15T11:50:38.731Z,24.73
2022-09-15T11:53:58.136Z,24.74
2022-09-15T11:57:00.733Z,24.83
2022-09-15T12:00:10.387Z,24.95
2022-09-15T12:03:29.142Z,25.05
2022-09-15T12:07:03.665Z,25.21
2022-09-15T12:10:14.749Z,25.22
2022-09-15T12:13:19.468Z,25.05
2022-09-15T12:16:23.000Z,24.86
2022-09-15T12:19:55.592Z,24.70
2022-09-15T12:23:12.008Z,24.43
2022-09-15T12:26:18.861Z,24.36
2022-09-15T12:29:27.081Z,24.44
2022-09-15T12:32:34.945Z,24.42
2022-09-15T12:35:38.134Z,24.42
2022-09-15T12:38:40.251Z,24.49
2022-09-15T12:42:05.100Z,24.46
2022-09-15T12:45:22.885Z,24.62
2022-09-15T12:48:34.825Z,24.62
2022-09-15T12:51:36.877Z,24.67
2022-09-15T12:54:45.297Z,24.69
2022-09-15T12:57:53.902Z,24.65
2022-09-15T13:01:18.825Z,24.41
2022-09-15T13:04:43.567Z,24.23
2022-09-15T13:07:53.713Z,23.26
2022-09-15T13:11:09.636Z,18.85
2022-09-15T13:14:24.412Z,17.86
2022-09-15T13:17:29.371Z,17.79
2022-09-15T13:20:38.167Z,17.56
2022-09-15T13:23:43.635Z,17.39
2022-09-15T13:26:53.073Z,17.27
2022-09-15T13:30:00.844Z,17.28
2022-09-15T13:33:21.433Z,17.54
2022-09-15T13:36:26.589Z,17.75
2022-09-15T13:39:59.543Z,17.69
2022-09-15T13:43:22.419Z,17.55
2022-09-15T13:46:36.762Z,17.56
2022-09-15T13:49:48.380Z,17.56
2022-09-15T13:53:10.782Z,17.60
2022-09-15T13:56:19.749Z,17.80
2022-09-15T13:59:29.546Z,17.76
2022-09-15T14:02:31.670Z,17.77
2022-09-15T14:05:35.665Z,17.92
2022-09-15T14:08:38.838Z,18.01
2022-09-15T14:11:42.501Z,18.12
2022-09-15T14:14:54.586Z,18.23
2022-09-15T14:17:56.995Z,18.32
2022-09-15T14:21:06.014Z,18.33
2022-09-15T14:24:20.310Z,18.43
2022-09-15T14:27:25.830Z,18.45
2022-09-15T14:30:31.954Z,18.49
2022-09-15T14:33:40.041Z,18.39
2022-09-15T14:36:42.626Z,18.50
2022-09-15T14:39:51.992Z,18.43
2022-09-15T14:42:54.671Z,18.45
2022-09-15T14:46:10.370Z,18.40
2022-09-15T14:49:17.761Z,18.38
2022-09-15T14:52:27.876Z,18.30
2022-09-15T14:55:37.593Z,18.24
2022-09-15T14:58:51.925Z,18.18
2022-09-15T15:01:59.512Z,18.11
2022-09-15T15:05:14.964Z,18.07
2022-09-15T15:08:29.874Z,18.11
2022-09-15T15:11:34.521Z,18.08
2022-09-15T15:14:36.984Z,18.12
2022-09-15T15:17:44.021Z,18.05
2022-09-15T15:20:49.937Z,17.99
2022-09-15T15:23:52.557Z,17.98
2022-09-15T15:26:54.868Z,17.92
